createdAt,value
2023-05-05T00:01:28.255Z,58.50
2023-05-05T00:03:55.234Z,58.64
2023-05-05T00:06:22.085Z,59.14
2023-05-05T00:08:48.910Z,58.70
2023-05-05T00:11:15.735Z,58.91
2023-05-05T00:13:42.638Z,59.45
2023-05-05T00:16:09.554Z,59.50
2023-05-05T00:18:36.499Z,59.25
2023-05-05T00:21:04.619Z,59.41
2023-05-05T00:23:31.567Z,59.50
2023-05-05T00:25:58.406Z,59.83
2023-05-05T00:28:25.237Z,59.39
2023-05-05T00:30:52.204Z,59.66
2023-05-05T00:33:19.186Z,60.09
2023-05-05T00:35:46.650Z,59.61
2023-05-05T00:38:13.605Z,59.93
2023-05-05T00:40:41.681Z,60.34
2023-05-05T00:43:08.572Z,60.20
2023-05-05T00:45:37.462Z,60.13
2023-05-05T00:48:04.640Z,60.93
2023-05-05T00:50:31.657Z,61.34
2023-05-05T00:53:04.646Z,61.22
2023-05-05T00:55:31.758Z,61.52
2023-05-05T00:57:59.399Z,62.07
2023-05-05T01:00:27.291Z,62.03
2023-05-05T01:02:55.408Z,62.12
2023-05-05T01:05:23.076Z,62.36
2023-05-05T01:07:55.896Z,62.63
2023-05-05T01:10:30.546Z,62.78
2023-05-05T01:13:10.882Z,63.35
2023-05-05T01:15:41.159Z,63.37
2023-05-05T01:18:19.774Z,63.98
2023-05-05T01:20:52.518Z,64.43
2023-05-05T01:23:50.360Z,64.36
2023-05-05T01:26:54.905Z,64.69
2023-05-05T01:29:34.665Z,65.02
2023-05-05T01:32:01.952Z,65.16
2023-05-05T01:34:39.241Z,65.03
2023-05-05T01:37:16.229Z,64.99
2023-05-05T01:39:43.085Z,65.17
2023-05-05T01:42:14.002Z,65.46
2023-05-05T01:44:44.396Z,65.71
2023-05-05T01:47:18.957Z,65.95
2023-05-05T01:49:47.445Z,66.21
2023-05-05T01:52:15.233Z,66.45
2023-05-05T01:54:43.029Z,66.62
2023-05-05T01:57:10.031Z,66.46
2023-05-05T01:59:38.258Z,66.79
2023-05-05T02:02:07.207Z,67.48
2023-05-05T02:04:34.225Z,67.93
2023-05-05T02:07:01.418Z,67.51
2023-05-05T02:09:28.711Z,67.89
2023-05-05T02:11:57.124Z,68.13
2023-05-05T02:14:24.054Z,68.19
2023-05-05T02:16:50.862Z,68.47
2023-05-05T02:19:17.705Z,68.43
2023-05-05T02:21:45.086Z,68.44
2023-05-05T02:24:12.134Z,68.61
2023-05-05T02:26:39.864Z,68.72
2023-05-05T02:29:12.997Z,68.94
2023-05-05T02:31:51.304Z,68.89
2023-05-05T02:34:22.854Z,68.74
2023-05-05T02:36:51.931Z,68.75
2023-05-05T02:39:22.159Z,68.84
2023-05-05T02:41:49.605Z,68.55
2023-05-05T02:44:23.675Z,68.97
2023-05-05T02:46:51.196Z,68.82
2023-05-05T02:49:18.279Z,68.85
2023-05-05T02:51:45.280Z,69.14
2023-05-05T02:54:19.279Z,69.23
2023-05-05T02:56:48.705Z,69.13
2023-05-05T02:59:48.707Z,69.22
2023-05-05T03:02:25.046Z,69.18
2023-05-05T03:04:54.347Z,69.06
2023-05-05T03:07:26.496Z,69.18
2023-05-05T03:10:08.849Z,68.98
2023-05-05T03:12:48.435Z,69.01
2023-05-05T03:15:22.641Z,68.87
2023-05-05T03:17:50.286Z,68.79
2023-05-05T03:20:17.323Z,68.65
2023-05-05T03:22:45.810Z,68.45
2023-05-05T03:25:13.979Z,68.63
2023-05-05T03:27:41.115Z,68.96
2023-05-05T03:30:09.593Z,69.19
2023-05-05T03:32:40.462Z,68.87
2023-05-05T03:35:07.668Z,69.27
2023-05-05T03:37:34.851Z,69.50
2023-05-05T03:40:02.205Z,69.77
2023-05-05T03:42:30.463Z,70.31
2023-05-05T03:44:57.706Z,70.77
2023-05-05T03:47:26.403Z,71.44
2023-05-05T03:49:53.692Z,71.92
2023-05-05T03:52:24.015Z,72.38
2023-05-05T03:54:52.295Z,72.95
2023-05-05T03:57:19.120Z,73.46
2023-05-05T03:59:46.184Z,73.50
2023-05-05T04:02:13.271Z,73.56
2023-05-05T04:04:40.525Z,73.14
2023-05-05T04:07:07.401Z,73.30
2023-05-05T04:09:34.284Z,72.96
2023-05-05T04:12:01.605Z,72.59
2023-05-05T04:14:30.230Z,72.32
2023-05-05T04:16:57.733Z,72.52
2023-05-05T04:19:24.746Z,72.81
2023-05-05T04:21:52.183Z,72.82
2023-05-05T04:24:24.971Z,72.31
2023-05-05T04:26:52.692Z,71.94
2023-05-05T04:29:19.930Z,71.50
2023-05-05T04:31:46.866Z,71.50
2023-05-05T04:34:14.425Z,71.25
2023-05-05T04:36:41.739Z,71.14
2023-05-05T04:39:09.344Z,70.70
2023-05-05T04:41:36.489Z,70.73
2023-05-05T04:44:03.617Z,69.92
2023-05-05T04:46:31.003Z,69.45
2023-05-05T04:48:58.980Z,69.03
2023-05-05T04:51:27.775Z,68.78
2023-05-05T04:53:55.899Z,69.29
2023-05-05T04:56:23.925Z,68.29
2023-05-05T04:58:50.888Z,68.08
2023-05-05T05:01:17.837Z,68.15
2023-05-05T05:03:44.830Z,67.02
2023-05-05T05:06:12.867Z,67.19
2023-05-05T05:08:39.763Z,67.31
2023-05-05T05:11:06.577Z,66.83
2023-05-05T05:13:33.962Z,65.40
2023-05-05T05:16:01.491Z,65.11
2023-05-05T05:18:28.758Z,64.61
2023-05-05T05:20:56.345Z,63.95
2023-05-05T05:23:23.578Z,63.57
2023-05-05T05:25:51.161Z,64.12
2023-05-05T05:28:19.983Z,64.00
2023-05-05T05:30:52.153Z,63.52
2023-05-05T05:33:19.970Z,62.18
2023-05-05T05:35:47.723Z,62.43
2023-05-05T05:38:15.097Z,62.80
2023-05-05T05:40:42.389Z,62.13
2023-05-05T05:43:10.282Z,59.86
2023-05-05T05:45:38.448Z,60.16
2023-05-05T05:48:08.074Z,58.97
2023-05-05T05:50:36.358Z,57.71
2023-05-05T05:53:04.122Z,58.85
2023-05-05T05:55:31.332Z,56.40
2023-05-05T05:57:58.492Z,55.95
2023-05-05T06:00:26.153Z,56.62
2023-05-05T06:02:56.016Z,55.49
2023-05-05T06:05:27.018Z,54.85
2023-05-05T06:07:54.299Z,55.40
2023-05-05T06:10:28.084Z,55.56
2023-05-05T06:13:02.165Z,55.37
2023-05-05T06:15:31.086Z,55.37
2023-05-05T06:17:58.508Z,54.89
2023-05-05T06:20:26.455Z,53.83
2023-05-05T06:22:53.591Z,55.26
2023-05-05T06:25:21.529Z,55.55
2023-05-05T06:27:49.741Z,54.99
2023-05-05T06:30:16.710Z,54.84
2023-05-05T06:32:43.696Z,55.23
2023-05-05T06:35:10.602Z,54.64
2023-05-05T06:37:38.456Z,53.92
2023-05-05T06:40:07.199Z,54.84
2023-05-05T06:42:34.316Z,54.20
2023-05-05T06:45:04.220Z,53.93
2023-05-05T06:47:32.122Z,53.34
2023-05-05T06:49:58.994Z,53.97
2023-05-05T06:52:26.893Z,54.15
2023-05-05T06:54:53.773Z,53.78
2023-05-05T06:57:20.881Z,52.53
2023-05-05T06:59:47.792Z,52.24
2023-05-05T07:02:14.629Z,52.59
2023-05-05T07:04:41.552Z,52.52
2023-05-05T07:07:08.455Z,52.72
2023-05-05T07:09:35.410Z,50.77
2023-05-05T07:12:02.603Z,50.59
2023-05-05T07:14:29.500Z,50.51
2023-05-05T07:16:56.427Z,50.50
2023-05-05T07:19:23.684Z,50.70
2023-05-05T07:21:50.512Z,51.24
2023-05-05T07:24:17.340Z,51.61
2023-05-05T07:26:44.242Z,51.84
2023-05-05T07:29:11.145Z,51.84
2023-05-05T07:31:38.112Z,50.85
2023-05-05T07:34:05.038Z,50.93
2023-05-05T07:36:32.307Z,50.60
2023-05-05T07:38:59.279Z,51.13
2023-05-05T07:41:26.501Z,51.22
2023-05-05T07:43:53.471Z,50.89
2023-05-05T07:46:20.382Z,50.65
2023-05-05T07:48:47.310Z,50.92
2023-05-05T07:51:14.611Z,49.19
2023-05-05T07:53:41.543Z,47.55
2023-05-05T07:56:09.077Z,47.36
2023-05-05T07:58:35.987Z,47.16
2023-05-05T08:01:02.897Z,46.20
2023-05-05T08:03:29.943Z,46.38
2023-05-05T08:05:57.050Z,46.74
2023-05-05T08:08:25.190Z,45.79
2023-05-05T08:10:53.406Z,45.89
2023-05-05T08:13:20.661Z,47.16
2023-05-05T08:15:47.812Z,46.97
2023-05-05T08:18:14.813Z,45.14
2023-05-05T08:20:41.817Z,45.87
2023-05-05T08:23:08.753Z,45.59
2023-05-05T08:25:36.068Z,44.89
2023-05-05T08:28:02.910Z,44.32
2023-05-05T08:30:30.103Z,44.67
2023-05-05T08:32:56.998Z,44.71
2023-05-05T08:35:23.954Z,44.82
2023-05-05T08:37:51.862Z,44.09
2023-05-05T08:40:20.960Z,44.71
2023-05-05T08:42:48.220Z,44.43
2023-05-05T08:45:16.064Z,43.47
2023-05-05T08:47:43.648Z,44.02
2023-05-05T08:50:11.302Z,43.25
2023-05-05T08:55:24.377Z,44.06
2023-05-05T08:57:56.566Z,43.50
2023-05-05T09:00:24.754Z,43.21
2023-05-05T09:02:51.900Z,43.08
2023-05-05T09:05:19.006Z,43.21
2023-05-05T09:07:47.436Z,40.17
2023-05-05T09:10:14.533Z,38.68
2023-05-05T09:12:41.746Z,37.79
2023-05-05T09:15:10.946Z,38.92
2023-05-05T09:17:39.369Z,39.10
2023-05-05T09:20:11.244Z,38.80
2023-05-05T09:22:46.513Z,37.66
2023-05-05T09:25:15.144Z,38.61
2023-05-05T09:27:46.130Z,38.50
2023-05-05T09:30:32.183Z,37.61
2023-05-05T09:32:59.462Z,38.21
2023-05-05T09:35:26.822Z,38.77
2023-05-05T09:37:53.699Z,39.04
2023-05-05T09:40:21.047Z,38.30
2023-05-05T09:42:48.023Z,38.22
2023-05-05T09:45:17.976Z,37.24
2023-05-05T09:47:48.429Z,37.55
2023-05-05T09:50:18.542Z,37.85
2023-05-05T09:53:00.931Z,37.60
2023-05-05T09:55:29.296Z,37.97
2023-05-05T09:57:56.346Z,38.26
2023-05-05T10:00:26.210Z,38.40
2023-05-05T10:02:53.212Z,36.84
2023-05-05T10:05:21.266Z,37.56
2023-05-05T10:07:48.250Z,36.65
2023-05-05T10:10:16.688Z,36.56
2023-05-05T10:12:46.560Z,35.52
2023-05-05T10:15:14.002Z,34.52
2023-05-05T10:18:05.077Z,35.17
2023-05-05T10:20:34.271Z,35.32
2023-05-05T10:23:02.912Z,34.95
2023-05-05T10:25:33.776Z,35.39
2023-05-05T10:28:01.413Z,35.76
2023-05-05T10:30:33.227Z,35.77
2023-05-05T10:33:30.965Z,35.51
2023-05-05T10:36:01.790Z,34.97
2023-05-05T10:38:31.028Z,33.44
2023-05-05T10:40:59.316Z,33.22
2023-05-05T10:43:26.856Z,33.31
2023-05-05T10:45:53.915Z,34.30
2023-05-05T10:48:26.780Z,34.86
2023-05-05T10:50:56.545Z,34.65
2023-05-05T10:53:29.453Z,34.47
2023-05-05T10:55:59.085Z,33.49
2023-05-05T10:58:46.873Z,32.52
2023-05-05T11:01:34.994Z,32.44
2023-05-05T11:04:21.130Z,31.86
2023-05-05T11:07:14.619Z,32.16
2023-05-05T11:09:55.207Z,31.79
2023-05-05T11:12:23.132Z,32.42
2023-05-05T11:15:28.166Z,32.50
2023-05-05T11:17:58.985Z,31.52
2023-05-05T11:20:35.469Z,31.81
2023-05-05T11:23:02.281Z,32.10
2023-05-05T11:25:35.742Z,31.43
2023-05-05T11:28:25.927Z,30.97
2023-05-05T11:30:56.376Z,30.43
2023-05-05T11:33:33.646Z,31.69
2023-05-05T11:36:03.412Z,31.70
2023-05-05T11:38:54.604Z,32.03
2023-05-05T11:41:30.740Z,32.57
2023-05-05T11:44:14.491Z,32.35
2023-05-05T11:46:54.315Z,32.02
2023-05-05T11:49:28.231Z,30.53
2023-05-05T11:52:01.400Z,30.72
2023-05-05T11:54:28.548Z,30.82
2023-05-05T11:57:00.642Z,30.38
2023-05-05T11:59:27.572Z,29.11
2023-05-05T12:01:54.459Z,28.64
2023-05-05T12:04:22.492Z,28.69
2023-05-05T12:06:49.582Z,27.83
2023-05-05T12:09:21.156Z,28.31
2023-05-05T12:11:56.023Z,27.97
2023-05-05T12:14:23.568Z,28.98
2023-05-05T12:17:05.020Z,29.80
2023-05-05T12:19:36.280Z,28.20
2023-05-05T12:22:04.129Z,28.19
2023-05-05T12:24:33.032Z,28.65
2023-05-05T12:27:09.524Z,28.05
2023-05-05T12:29:36.595Z,27.98
2023-05-05T12:32:03.753Z,27.60
2023-05-05T12:34:31.301Z,27.41
2023-05-05T12:36:58.125Z,27.02
2023-05-05T12:39:36.554Z,26.94
2023-05-05T12:42:06.640Z,26.70
2023-05-05T12:44:36.299Z,27.17
2023-05-05T12:47:03.532Z,25.95
2023-05-05T12:49:33.956Z,25.32
2023-05-05T12:52:01.084Z,25.54
2023-05-05T12:54:30.982Z,25.97
2023-05-05T12:56:58.649Z,26.45
2023-05-05T12:59:25.508Z,26.47
2023-05-05T13:01:53.474Z,25.55
2023-05-05T13:04:25.919Z,25.57
2023-05-05T13:07:13.257Z,25.68
2023-05-05T13:16:44.323Z,28.17
2023-05-05T13:19:12.657Z,27.27
2023-05-05T13:21:43.111Z,27.78
2023-05-05T13:24:21.389Z,27.67
2023-05-05T13:26:53.662Z,25.93
2023-05-05T13:29:27.292Z,26.80
2023-05-05T13:31:59.076Z,26.61
2023-05-05T13:34:29.296Z,27.70
2023-05-05T13:36:57.986Z,27.69
2023-05-05T13:39:25.560Z,27.76
2023-05-05T13:41:57.309Z,27.53
2023-05-05T13:44:24.567Z,27.44
2023-05-05T13:46:56.671Z,26.48
2023-05-05T13:49:33.614Z,25.55
2023-05-05T13:53:32.110Z,25.66
2023-05-05T13:55:59.998Z,26.52
2023-05-05T13:58:26.769Z,26.12
2023-05-05T14:00:53.526Z,21.88
2023-05-05T14:03:21.958Z,20.58
2023-05-05T14:05:48.759Z,20.94
2023-05-05T14:08:15.547Z,21.49
2023-05-05T14:10:42.314Z,22.15
2023-05-05T14:13:09.098Z,20.45
2023-05-05T14:17:43.235Z,21.29
2023-05-05T14:20:10.440Z,20.44
2023-05-05T14:22:38.303Z,20.47
2023-05-05T14:25:06.118Z,20.08
2023-05-05T14:27:33.089Z,20.30
2023-05-05T14:29:59.855Z,20.27
2023-05-05T14:32:26.697Z,21.29
2023-05-05T14:34:55.417Z,22.06
2023-05-05T14:37:22.726Z,23.61
2023-05-05T14:39:49.525Z,24.12
2023-05-05T14:42:16.347Z,23.60
2023-05-05T14:44:44.046Z,24.20
2023-05-05T14:47:10.939Z,24.68
2023-05-05T14:49:37.619Z,25.32
2023-05-05T14:52:04.378Z,25.51
2023-05-05T14:54:31.212Z,24.49
2023-05-05T14:56:58.469Z,24.69
2023-05-05T14:59:25.411Z,24.35
2023-05-05T15:01:52.180Z,24.55
2023-05-05T15:04:19.192Z,25.37
2023-05-05T15:06:45.993Z,25.70
2023-05-05T15:09:13.429Z,26.11
2023-05-05T15:11:41.483Z,26.52
2023-05-05T15:14:08.252Z,26.70
2023-05-05T15:16:35.427Z,27.15
2023-05-05T15:19:02.552Z,27.06
2023-05-05T15:21:29.248Z,27.50
2023-05-05T15:23:55.981Z,28.21
2023-05-05T15:26:24.064Z,29.11
2023-05-05T15:28:52.649Z,29.14
2023-05-05T15:31:19.675Z,28.19
2023-05-05T15:33:48.713Z,27.83
2023-05-05T15:36:22.486Z,27.69
2023-05-05T15:38:49.546Z,27.13
2023-05-05T15:41:16.576Z,27.81
2023-05-05T15:43:43.338Z,28.06
2023-05-05T15:46:10.311Z,27.72
2023-05-05T15:48:37.067Z,27.70
2023-05-05T15:51:03.961Z,27.96
2023-05-05T15:53:30.828Z,28.25
2023-05-05T15:55:57.575Z,27.81
2023-05-05T15:58:24.390Z,28.16
2023-05-05T16:00:51.323Z,27.86
2023-05-05T16:03:18.330Z,27.57
2023-05-05T16:05:47.493Z,28.10
2023-05-05T16:08:14.332Z,28.70
2023-05-05T16:10:41.162Z,29.18
2023-05-05T16:13:08.055Z,29.56
2023-05-05T16:15:36.573Z,29.32
2023-05-05T16:18:03.540Z,29.97
2023-05-05T16:20:30.788Z,30.32
2023-05-05T16:22:57.652Z,30.17
2023-05-05T16:25:24.490Z,30.07
2023-05-05T16:27:52.355Z,29.17
2023-05-05T16:30:19.237Z,29.16
2023-05-05T16:32:47.350Z,29.66
2023-05-05T16:35:15.391Z,29.37
2023-05-05T16:37:42.223Z,29.55
2023-05-05T16:40:09.854Z,29.55
2023-05-05T16:42:36.632Z,29.84
2023-05-05T16:45:03.639Z,29.96
2023-05-05T16:47:30.375Z,30.50
2023-05-05T16:49:57.430Z,30.37
2023-05-05T16:52:24.183Z,30.14
2023-05-05T16:54:55.600Z,30.42
2023-05-05T16:57:23.175Z,30.77
2023-05-05T16:59:49.978Z,31.53
2023-05-05T17:02:16.820Z,32.18
2023-05-05T17:04:43.636Z,32.29
2023-05-05T17:07:10.442Z,32.95
2023-05-05T17:09:37.193Z,33.19
2023-05-05T17:12:04.507Z,33.02
2023-05-05T17:14:31.564Z,33.33
2023-05-05T17:16:58.307Z,33.44
2023-05-05T17:19:25.077Z,33.44
2023-05-05T17:21:51.884Z,33.45
2023-05-05T17:24:18.603Z,33.46
2023-05-05T17:26:45.378Z,33.79
2023-05-05T17:29:13.061Z,34.20
2023-05-05T17:31:40.244Z,34.22
2023-05-05T17:34:07.067Z,34.48
2023-05-05T17:36:33.867Z,34.76
2023-05-05T17:39:00.718Z,34.83
2023-05-05T17:41:27.548Z,35.24
2023-05-05T17:43:54.267Z,35.69
2023-05-05T17:46:21.120Z,35.49
2023-05-05T17:48:48.166Z,35.60
2023-05-05T17:51:15.004Z,35.87
2023-05-05T17:53:41.950Z,36.13
2023-05-05T17:56:09.682Z,36.22
2023-05-05T17:58:36.416Z,36.48
2023-05-05T18:01:03.147Z,36.50
2023-05-05T18:03:30.082Z,36.69
2023-05-05T18:05:58.094Z,36.89
2023-05-05T18:08:24.895Z,36.90
2023-05-05T18:10:53.030Z,36.84
2023-05-05T18:13:21.040Z,37.38
2023-05-05T18:15:47.793Z,37.11
2023-05-05T18:18:14.716Z,37.29
2023-05-05T18:20:41.446Z,37.59
2023-05-05T18:23:08.217Z,37.90
2023-05-05T18:25:36.488Z,37.98
2023-05-05T18:28:05.527Z,37.68
2023-05-05T18:30:32.885Z,37.93
2023-05-05T18:32:59.770Z,37.96
2023-05-05T18:35:26.470Z,38.07
2023-05-05T18:37:55.219Z,38.76
2023-05-05T18:40:23.132Z,39.65
2023-05-05T18:42:49.889Z,39.67
2023-05-05T18:45:16.755Z,39.96
2023-05-05T18:47:43.586Z,40.49
2023-05-05T18:50:10.474Z,40.63
2023-05-05T18:52:37.246Z,41.05
2023-05-05T18:55:04.284Z,41.31
2023-05-05T18:57:31.143Z,41.34
2023-05-05T18:59:57.963Z,41.72
2023-05-05T19:02:24.880Z,42.04
2023-05-05T19:04:51.689Z,42.11
2023-05-05T19:07:27.904Z,42.33
2023-05-05T19:10:04.310Z,42.26
2023-05-05T19:12:31.126Z,42.27
2023-05-05T19:14:57.847Z,42.49
2023-05-05T19:17:24.634Z,42.50
2023-05-05T19:19:51.586Z,42.61
2023-05-05T19:22:20.754Z,42.65
2023-05-05T19:24:47.484Z,43.04
2023-05-05T19:27:16.571Z,42.92
2023-05-05T19:29:43.842Z,43.05
2023-05-05T19:32:10.813Z,43.79
2023-05-05T19:34:37.863Z,44.61
2023-05-05T19:37:04.657Z,44.97
2023-05-05T19:39:31.721Z,45.85
2023-05-05T19:41:59.614Z,46.45
2023-05-05T19:44:26.320Z,47.16
2023-05-05T19:46:53.176Z,47.68
2023-05-05T19:49:20.088Z,48.75
2023-05-05T19:51:49.805Z,50.01
2023-05-05T19:54:16.619Z,52.25
2023-05-05T19:56:43.407Z,53.08
2023-05-05T19:59:10.984Z,54.65
2023-05-05T20:01:38.007Z,55.85
2023-05-05T20:04:04.969Z,56.54
2023-05-05T20:06:32.425Z,56.55
2023-05-05T20:08:59.231Z,57.08
2023-05-05T20:11:26.205Z,57.79
2023-05-05T20:13:53.449Z,57.89
2023-05-05T20:16:21.591Z,57.99
2023-05-05T20:18:48.631Z,59.03
2023-05-05T20:21:16.670Z,59.09
2023-05-05T20:23:45.270Z,58.84
2023-05-05T20:26:12.308Z,58.71
2023-05-05T20:28:39.500Z,58.77
2023-05-05T20:31:07.465Z,58.75
2023-05-05T20:33:34.357Z,58.88
2023-05-05T20:36:01.331Z,59.09
2023-05-05T20:38:28.069Z,58.56
2023-05-05T20:40:54.829Z,58.75
2023-05-05T20:43:22.686Z,58.63
2023-05-05T20:45:49.402Z,58.67
2023-05-05T20:48:16.191Z,57.98
2023-05-05T20:50:42.959Z,57.91
2023-05-05T20:53:10.938Z,58.23
2023-05-05T20:55:37.720Z,57.24
2023-05-05T20:58:04.853Z,56.40
2023-05-05T21:00:31.710Z,56.04
2023-05-05T21:02:58.838Z,55.15
2023-05-05T21:05:26.014Z,55.25
2023-05-05T21:07:53.317Z,54.82
2023-05-05T21:10:20.302Z,54.79
2023-05-05T21:12:47.154Z,54.58
2023-05-05T21:15:13.966Z,55.35
2023-05-05T21:17:41.760Z,55.69
2023-05-05T21:20:09.359Z,55.53
2023-05-05T21:22:36.366Z,55.43
2023-05-05T21:25:17.211Z,56.07
2023-05-05T21:27:44.072Z,55.93
2023-05-05T21:30:11.512Z,55.60
2023-05-05T21:32:39.374Z,55.66
2023-05-05T21:35:07.922Z,55.55
2023-05-05T21:37:36.316Z,56.46
2023-05-05T21:40:03.304Z,56.42
2023-05-05T21:42:30.835Z,56.18
2023-05-05T21:44:57.557Z,57.01
2023-05-05T21:47:24.353Z,57.17
2023-05-05T21:49:52.179Z,56.78
2023-05-05T21:52:18.968Z,56.68
2023-05-05T21:54:45.821Z,57.30
2023-05-05T21:57:12.590Z,57.83
2023-05-05T21:59:39.361Z,57.70
2023-05-05T22:02:06.139Z,57.97
2023-05-05T22:04:32.903Z,58.19
2023-05-05T22:06:59.658Z,58.59
2023-05-05T22:09:26.492Z,59.08
2023-05-05T22:11:53.282Z,59.32
2023-05-05T22:14:21.540Z,59.68
2023-05-05T22:16:48.420Z,60.25
2023-05-05T22:19:15.216Z,60.32
2023-05-05T22:21:42.334Z,60.19
2023-05-05T22:24:09.071Z,60.07
2023-05-05T22:26:35.806Z,60.27
2023-05-05T22:29:02.556Z,60.58
2023-05-05T22:31:30.878Z,60.76
2023-05-05T22:33:57.704Z,61.27
2023-05-05T22:36:24.535Z,61.63
2023-05-05T22:38:51.763Z,61.92
2023-05-05T22:41:18.546Z,61.85
2023-05-05T22:43:45.306Z,62.29
2023-05-05T22:46:12.311Z,62.22
2023-05-05T22:48:39.039Z,62.03
2023-05-05T22:51:07.654Z,61.77
2023-05-05T22:53:34.496Z,61.50
2023-05-05T22:56:01.328Z,61.71
2023-05-05T22:58:28.415Z,61.39
2023-05-05T23:00:55.260Z,61.79
2023-05-05T23:03:22.053Z,61.76
2023-05-05T23:05:48.763Z,61.83
2023-05-05T23:08:15.585Z,61.75
2023-05-05T23:10:42.307Z,61.73
2023-05-05T23:13:09.268Z,61.84
2023-05-05T23:15:36.539Z,62.37
2023-05-05T23:18:03.287Z,62.27
2023-05-05T23:20:30.070Z,62.79
2023-05-05T23:22:56.796Z,62.78
2023-05-05T23:25:23.507Z,62.72
2023-05-05T23:27:50.704Z,63.04
2023-05-05T23:30:17.643Z,63.05
2023-05-05T23:32:45.091Z,62.64
2023-05-05T23:35:12.283Z,62.42
2023-05-05T23:37:39.234Z,62.59
2023-05-05T23:40:06.948Z,62.43
2023-05-05T23:42:33.648Z,62.35
2023-05-05T23:45:00.981Z,62.42
2023-05-05T23:47:27.712Z,62.60
2023-05-05T23:49:54.429Z,62.11
2023-05-05T23:52:21.927Z,61.81
2023-05-05T23:54:48.628Z,61.54
2023-05-05T23:57:16.095Z,61.23
2023-05-05T23:59:42.812Z,61.19
